sensor_id;sensor_type;location;lat;lon;timestamp;temperature;humidity
13976;DHT22;7062;49.792;9.946;2023-07-24T00:00:30;21.20;99.90
13976;DHT22;7062;49.792;9.946;2023-07-24T00:02:55;21.30;99.90
13976;DHT22;7062;49.792;9.946;2023-07-24T00:05:21;21.20;99.90
13976;DHT22;7062;49.792;9.946;2023-07-24T00:07:47;21.10;99.90
13976;DHT22;7062;49.792;9.946;2023-07-24T00:10:13;21.00;99.90
13976;DHT22;7062;49.792;9.946;2023-07-24T00:12:38;21.00;99.90
13976;DHT22;7062;49.792;9.946;2023-07-24T00:15:04;20.90;99.90
13976;DHT22;7062;49.792;9.946;2023-07-24T00:17:30;21.00;99.90
13976;DHT22;7062;49.792;9.946;2023-07-24T00:19:56;20.90;99.90
13976;DHT22;7062;49.792;9.946;2023-07-24T00:22:21;21.00;99.90
13976;DHT22;7062;49.792;9.946;2023-07-24T00:24:47;21.00;99.90
13976;DHT22;7062;49.792;9.946;2023-07-24T00:27:13;20.90;99.90
13976;DHT22;7062;49.792;9.946;2023-07-24T00:29:39;20.90;99.90
13976;DHT22;7062;49.792;9.946;2023-07-24T00:32:05;20.90;99.90
13976;DHT22;7062;49.792;9.946;2023-07-24T00:34:31;20.90;99.90
13976;DHT22;7062;49.792;9.946;2023-07-24T00:36:57;20.90;99.90
13976;DHT22;7062;49.792;9.946;2023-07-24T00:39:22;20.80;99.90
13976;DHT22;7062;49.792;9.946;2023-07-24T00:41:48;20.80;99.90
13976;DHT22;7062;49.792;9.946;2023-07-24T00:44:14;20.80;99.90
13976;DHT22;7062;49.792;9.946;2023-07-24T00:46:39;20.80;99.90
13976;DHT22;7062;49.792;9.946;2023-07-24T00:49:05;20.70;99.90
13976;DHT22;7062;49.792;9.946;2023-07-24T00:51:33;20.70;99.90
13976;DHT22;7062;49.792;9.946;2023-07-24T00:54:01;20.50;99.90
13976;DHT22;7062;49.792;9.946;2023-07-24T00:56:27;20.50;99.90
13976;DHT22;7062;49.792;9.946;2023-07-24T00:58:54;20.60;99.90
13976;DHT22;7062;49.792;9.946;2023-07-24T01:01:23;20.50;99.90
13976;DHT22;7062;49.792;9.946;2023-07-24T01:03:49;20.50;99.90
13976;DHT22;7062;49.792;9.946;2023-07-24T01:06:15;20.50;99.90
13976;DHT22;7062;49.792;9.946;2023-07-24T01:08:40;20.50;99.90
13976;DHT22;7062;49.792;9.946;2023-07-24T01:11:16;20.50;99.90
13976;DHT22;7062;49.792;9.946;2023-07-24T01:13:54;20.50;99.90
13976;DHT22;7062;49.792;9.946;2023-07-24T01:16:22;20.40;99.90
13976;DHT22;7062;49.792;9.946;2023-07-24T01:18:51;20.40;99.90
13976;DHT22;7062;49.792;9.946;2023-07-24T01:21:20;20.40;99.90
13976;DHT22;7062;49.792;9.946;2023-07-24T01:26:19;20.30;99.90
13976;DHT22;7062;49.792;9.946;2023-07-24T01:28:45;20.40;99.90
13976;DHT22;7062;49.792;9.946;2023-07-24T01:31:11;20.30;99.90
13976;DHT22;7062;49.792;9.946;2023-07-24T01:33:37;20.30;99.90
13976;DHT22;7062;49.792;9.946;2023-07-24T01:36:04;20.30;99.90
13976;DHT22;7062;49.792;9.946;2023-07-24T01:38:34;20.30;99.90
13976;DHT22;7062;49.792;9.946;2023-07-24T01:41:01;20.20;99.90
13976;DHT22;7062;49.792;9.946;2023-07-24T01:43:29;20.30;99.90
13976;DHT22;7062;49.792;9.946;2023-07-24T01:45:55;20.30;99.90
13976;DHT22;7062;49.792;9.946;2023-07-24T01:48:21;20.20;99.90
13976;DHT22;7062;49.792;9.946;2023-07-24T01:50:47;20.30;99.90
13976;DHT22;7062;49.792;9.946;2023-07-24T01:53:13;20.30;99.90
13976;DHT22;7062;49.792;9.946;2023-07-24T01:55:38;20.30;99.90
13976;DHT22;7062;49.792;9.946;2023-07-24T01:58:04;20.30;99.90
13976;DHT22;7062;49.792;9.946;2023-07-24T02:00:30;20.30;99.90
13976;DHT22;7062;49.792;9.946;2023-07-24T02:02:55;20.30;99.90
13976;DHT22;7062;49.792;9.946;2023-07-24T02:05:21;20.30;99.90
13976;DHT22;7062;49.792;9.946;2023-07-24T02:07:47;20.40;99.90
13976;DHT22;7062;49.792;9.946;2023-07-24T02:10:13;20.40;99.90
13976;DHT22;7062;49.792;9.946;2023-07-24T02:12:38;20.40;99.90
13976;DHT22;7062;49.792;9.946;2023-07-24T02:15:05;20.30;99.90
13976;DHT22;7062;49.792;9.946;2023-07-24T02:17:31;20.20;99.90
13976;DHT22;7062;49.792;9.946;2023-07-24T02:19:57;20.20;99.90
13976;DHT22;7062;49.792;9.946;2023-07-24T02:22:23;20.20;99.90
13976;DHT22;7062;49.792;9.946;2023-07-24T02:24:49;20.20;99.90
13976;DHT22;7062;49.792;9.946;2023-07-24T02:27:26;20.20;99.90
13976;DHT22;7062;49.792;9.946;2023-07-24T02:29:52;20.20;99.90
13976;DHT22;7062;49.792;9.946;2023-07-24T02:32:18;20.20;99.90
13976;DHT22;7062;49.792;9.946;2023-07-24T02:34:47;20.10;99.90
13976;DHT22;7062;49.792;9.946;2023-07-24T02:37:12;20.00;99.90
13976;DHT22;7062;49.792;9.946;2023-07-24T02:39:38;20.00;99.90
13976;DHT22;7062;49.792;9.946;2023-07-24T02:42:04;19.90;99.90
13976;DHT22;7062;49.792;9.946;2023-07-24T02:44:29;19.80;99.90
13976;DHT22;7062;49.792;9.946;2023-07-24T02:46:55;19.80;99.90
13976;DHT22;7062;49.792;9.946;2023-07-24T02:49:21;19.80;99.90
13976;DHT22;7062;49.792;9.946;2023-07-24T02:51:46;19.80;99.90
13976;DHT22;7062;49.792;9.946;2023-07-24T02:54:12;19.80;99.90
13976;DHT22;7062;49.792;9.946;2023-07-24T02:56:37;19.80;99.90
13976;DHT22;7062;49.792;9.946;2023-07-24T02:59:04;19.90;99.90
13976;DHT22;7062;49.792;9.946;2023-07-24T03:01:30;19.70;99.90
13976;DHT22;7062;49.792;9.946;2023-07-24T03:03:55;19.70;99.90
13976;DHT22;7062;49.792;9.946;2023-07-24T03:06:21;19.70;99.90
13976;DHT22;7062;49.792;9.946;2023-07-24T03:08:47;19.60;99.90
13976;DHT22;7062;49.792;9.946;2023-07-24T03:11:12;19.60;99.90
13976;DHT22;7062;49.792;9.946;2023-07-24T03:13:38;19.60;99.90
13976;DHT22;7062;49.792;9.946;2023-07-24T03:16:06;19.60;99.90
13976;DHT22;7062;49.792;9.946;2023-07-24T03:18:32;19.70;99.90
13976;DHT22;7062;49.792;9.946;2023-07-24T03:20:58;19.70;99.90
13976;DHT22;7062;49.792;9.946;2023-07-24T03:23:24;19.80;99.90
13976;DHT22;7062;49.792;9.946;2023-07-24T03:25:50;19.80;99.90
13976;DHT22;7062;49.792;9.946;2023-07-24T03:28:16;19.80;99.90
13976;DHT22;7062;49.792;9.946;2023-07-24T03:30:41;19.80;99.90
13976;DHT22;7062;49.792;9.946;2023-07-24T03:33:07;19.80;99.90
13976;DHT22;7062;49.792;9.946;2023-07-24T03:35:33;19.80;99.90
13976;DHT22;7062;49.792;9.946;2023-07-24T03:37:59;19.70;99.90
13976;DHT22;7062;49.792;9.946;2023-07-24T03:40:25;19.70;99.90
13976;DHT22;7062;49.792;9.946;2023-07-24T03:42:51;19.70;99.90
13976;DHT22;7062;49.792;9.946;2023-07-24T03:45:16;19.80;99.90
13976;DHT22;7062;49.792;9.946;2023-07-24T03:47:42;19.70;99.90
13976;DHT22;7062;49.792;9.946;2023-07-24T03:50:08;19.50;99.90
13976;DHT22;7062;49.792;9.946;2023-07-24T03:52:33;19.50;99.90
13976;DHT22;7062;49.792;9.946;2023-07-24T03:54:59;19.50;99.90
13976;DHT22;7062;49.792;9.946;2023-07-24T03:57:25;19.50;99.90
13976;DHT22;7062;49.792;9.946;2023-07-24T03:59:50;19.50;99.90
13976;DHT22;7062;49.792;9.946;2023-07-24T04:02:16;19.50;99.90
13976;DHT22;7062;49.792;9.946;2023-07-24T04:04:42;19.60;99.90
13976;DHT22;7062;49.792;9.946;2023-07-24T04:07:07;19.50;99.90
13976;DHT22;7062;49.792;9.946;2023-07-24T04:09:33;19.40;99.90
13976;DHT22;7062;49.792;9.946;2023-07-24T04:11:59;19.40;99.90
13976;DHT22;7062;49.792;9.946;2023-07-24T04:14:24;19.40;99.90
13976;DHT22;7062;49.792;9.946;2023-07-24T04:16:50;19.40;99.90
13976;DHT22;7062;49.792;9.946;2023-07-24T04:19:16;19.40;99.90
13976;DHT22;7062;49.792;9.946;2023-07-24T04:21:41;19.40;99.90
13976;DHT22;7062;49.792;9.946;2023-07-24T04:24:08;19.50;99.90
13976;DHT22;7062;49.792;9.946;2023-07-24T04:26:33;19.40;99.90
13976;DHT22;7062;49.792;9.946;2023-07-24T04:28:59;19.30;99.90
13976;DHT22;7062;49.792;9.946;2023-07-24T04:31:25;19.30;99.90
13976;DHT22;7062;49.792;9.946;2023-07-24T04:33:50;19.10;99.90
13976;DHT22;7062;49.792;9.946;2023-07-24T04:36:16;19.10;99.90
13976;DHT22;7062;49.792;9.946;2023-07-24T04:38:41;19.10;99.90
13976;DHT22;7062;49.792;9.946;2023-07-24T04:41:07;19.40;99.90
13976;DHT22;7062;49.792;9.946;2023-07-24T04:43:33;20.20;99.90
13976;DHT22;7062;49.792;9.946;2023-07-24T04:45:59;19.70;99.90
13976;DHT22;7062;49.792;9.946;2023-07-24T04:48:25;19.90;99.90
13976;DHT22;7062;49.792;9.946;2023-07-24T04:50:57;20.10;99.90
13976;DHT22;7062;49.792;9.946;2023-07-24T04:53:23;20.20;99.90
13976;DHT22;7062;49.792;9.946;2023-07-24T04:55:49;20.30;99.90
13976;DHT22;7062;49.792;9.946;2023-07-24T04:58:14;20.40;99.90
13976;DHT22;7062;49.792;9.946;2023-07-24T05:00:40;20.50;99.90
13976;DHT22;7062;49.792;9.946;2023-07-24T05:03:05;20.30;99.90
13976;DHT22;7062;49.792;9.946;2023-07-24T05:05:33;20.30;99.90
13976;DHT22;7062;49.792;9.946;2023-07-24T05:07:59;20.30;99.90
13976;DHT22;7062;49.792;9.946;2023-07-24T05:10:24;20.20;99.90
13976;DHT22;7062;49.792;9.946;2023-07-24T05:12:50;20.20;99.90
13976;DHT22;7062;49.792;9.946;2023-07-24T05:15:16;20.20;99.90
13976;DHT22;7062;49.792;9.946;2023-07-24T05:17:44;20.20;99.90
13976;DHT22;7062;49.792;9.946;2023-07-24T05:20:10;20.20;99.90
13976;DHT22;7062;49.792;9.946;2023-07-24T05:22:36;20.30;99.90
13976;DHT22;7062;49.792;9.946;2023-07-24T05:25:02;20.40;99.90
13976;DHT22;7062;49.792;9.946;2023-07-24T05:27:27;20.40;99.90
13976;DHT22;7062;49.792;9.946;2023-07-24T05:29:55;20.40;99.90
13976;DHT22;7062;49.792;9.946;2023-07-24T05:32:20;20.40;99.90
13976;DHT22;7062;49.792;9.946;2023-07-24T05:34:46;20.50;99.90
13976;DHT22;7062;49.792;9.946;2023-07-24T05:37:12;20.70;99.90
13976;DHT22;7062;49.792;9.946;2023-07-24T05:39:37;20.90;99.90
13976;DHT22;7062;49.792;9.946;2023-07-24T05:42:03;21.10;99.90
13976;DHT22;7062;49.792;9.946;2023-07-24T05:44:29;21.40;99.90
13976;DHT22;7062;49.792;9.946;2023-07-24T05:46:54;21.40;99.90
13976;DHT22;7062;49.792;9.946;2023-07-24T05:49:20;21.60;99.90
13976;DHT22;7062;49.792;9.946;2023-07-24T05:51:46;21.80;99.90
13976;DHT22;7062;49.792;9.946;2023-07-24T05:54:11;21.60;99.90
13976;DHT22;7062;49.792;9.946;2023-07-24T05:56:37;21.40;99.90
13976;DHT22;7062;49.792;9.946;2023-07-24T05:59:03;21.40;99.90
13976;DHT22;7062;49.792;9.946;2023-07-24T06:01:28;21.20;99.90
13976;DHT22;7062;49.792;9.946;2023-07-24T06:03:54;21.20;99.90
13976;DHT22;7062;49.792;9.946;2023-07-24T06:06:19;21.00;99.90
13976;DHT22;7062;49.792;9.946;2023-07-24T06:08:45;21.10;99.90
13976;DHT22;7062;49.792;9.946;2023-07-24T06:11:12;21.20;99.90
13976;DHT22;7062;49.792;9.946;2023-07-24T06:13:38;21.00;99.90
13976;DHT22;7062;49.792;9.946;2023-07-24T06:16:04;20.90;99.90
13976;DHT22;7062;49.792;9.946;2023-07-24T06:18:30;20.90;99.90
13976;DHT22;7062;49.792;9.946;2023-07-24T06:20:56;20.90;99.90
13976;DHT22;7062;49.792;9.946;2023-07-24T06:23:21;21.10;99.90
13976;DHT22;7062;49.792;9.946;2023-07-24T06:25:47;21.30;99.90
13976;DHT22;7062;49.792;9.946;2023-07-24T06:28:13;21.30;99.90
13976;DHT22;7062;49.792;9.946;2023-07-24T06:30:38;21.20;99.90
13976;DHT22;7062;49.792;9.946;2023-07-24T06:33:04;21.10;99.90
13976;DHT22;7062;49.792;9.946;2023-07-24T06:35:31;21.10;99.90
13976;DHT22;7062;49.792;9.946;2023-07-24T06:37:56;21.20;99.90
13976;DHT22;7062;49.792;9.946;2023-07-24T06:40:22;21.30;99.90
13976;DHT22;7062;49.792;9.946;2023-07-24T06:42:47;21.40;99.90
13976;DHT22;7062;49.792;9.946;2023-07-24T06:45:13;21.50;99.90
13976;DHT22;7062;49.792;9.946;2023-07-24T06:47:39;21.60;99.90
13976;DHT22;7062;49.792;9.946;2023-07-24T06:50:05;21.70;99.90
13976;DHT22;7062;49.792;9.946;2023-07-24T06:52:32;21.70;99.90
13976;DHT22;7062;49.792;9.946;2023-07-24T06:54:58;21.80;99.90
13976;DHT22;7062;49.792;9.946;2023-07-24T06:57:24;21.90;99.90
13976;DHT22;7062;49.792;9.946;2023-07-24T06:59:49;22.00;99.90
13976;DHT22;7062;49.792;9.946;2023-07-24T07:02:15;21.90;99.90
13976;DHT22;7062;49.792;9.946;2023-07-24T07:04:41;21.80;99.90
13976;DHT22;7062;49.792;9.946;2023-07-24T07:07:06;21.80;99.90
13976;DHT22;7062;49.792;9.946;2023-07-24T07:09:32;22.00;99.90
13976;DHT22;7062;49.792;9.946;2023-07-24T07:11:58;22.00;99.90
13976;DHT22;7062;49.792;9.946;2023-07-24T07:14:24;22.00;99.90
13976;DHT22;7062;49.792;9.946;2023-07-24T07:16:49;22.10;99.90
13976;DHT22;7062;49.792;9.946;2023-07-24T07:19:15;22.10;99.90
13976;DHT22;7062;49.792;9.946;2023-07-24T07:21:41;22.20;99.90
13976;DHT22;7062;49.792;9.946;2023-07-24T07:24:07;22.20;99.90
13976;DHT22;7062;49.792;9.946;2023-07-24T07:26:32;22.10;99.90
13976;DHT22;7062;49.792;9.946;2023-07-24T07:28:58;22.20;99.90
13976;DHT22;7062;49.792;9.946;2023-07-24T07:31:25;22.20;99.90
13976;DHT22;7062;49.792;9.946;2023-07-24T07:33:50;22.30;99.90
13976;DHT22;7062;49.792;9.946;2023-07-24T07:36:16;22.40;99.90
13976;DHT22;7062;49.792;9.946;2023-07-24T07:38:43;22.40;99.90
13976;DHT22;7062;49.792;9.946;2023-07-24T07:41:08;22.60;99.90
13976;DHT22;7062;49.792;9.946;2023-07-24T07:43:34;22.60;99.90
13976;DHT22;7062;49.792;9.946;2023-07-24T07:46:02;22.50;99.90
13976;DHT22;7062;49.792;9.946;2023-07-24T07:48:27;22.60;99.90
13976;DHT22;7062;49.792;9.946;2023-07-24T07:50:54;22.80;99.90
13976;DHT22;7062;49.792;9.946;2023-07-24T07:53:19;22.80;99.90
13976;DHT22;7062;49.792;9.946;2023-07-24T07:55:45;22.90;99.90
13976;DHT22;7062;49.792;9.946;2023-07-24T07:58:10;23.00;99.90
13976;DHT22;7062;49.792;9.946;2023-07-24T08:00:36;23.10;99.90
13976;DHT22;7062;49.792;9.946;2023-07-24T08:03:05;23.20;99.90
13976;DHT22;7062;49.792;9.946;2023-07-24T08:05:31;23.40;99.90
13976;DHT22;7062;49.792;9.946;2023-07-24T08:07:57;23.70;99.90
13976;DHT22;7062;49.792;9.946;2023-07-24T08:10:23;23.80;99.90
13976;DHT22;7062;49.792;9.946;2023-07-24T08:12:49;23.80;99.90
13976;DHT22;7062;49.792;9.946;2023-07-24T08:15:14;23.70;99.90
13976;DHT22;7062;49.792;9.946;2023-07-24T08:17:40;23.70;99.90
13976;DHT22;7062;49.792;9.946;2023-07-24T08:20:06;23.60;99.90
13976;DHT22;7062;49.792;9.946;2023-07-24T08:22:31;23.80;99.90
13976;DHT22;7062;49.792;9.946;2023-07-24T08:24:57;23.90;99.90
13976;DHT22;7062;49.792;9.946;2023-07-24T08:27:23;23.90;99.90
13976;DHT22;7062;49.792;9.946;2023-07-24T08:29:51;23.70;99.90
13976;DHT22;7062;49.792;9.946;2023-07-24T08:32:18;23.80;99.90
13976;DHT22;7062;49.792;9.946;2023-07-24T08:34:44;23.70;99.90
13976;DHT22;7062;49.792;9.946;2023-07-24T08:37:09;23.60;99.90
13976;DHT22;7062;49.792;9.946;2023-07-24T08:39:36;23.50;99.90
13976;DHT22;7062;49.792;9.946;2023-07-24T08:42:10;23.50;99.90
13976;DHT22;7062;49.792;9.946;2023-07-24T08:44:37;23.40;99.90
13976;DHT22;7062;49.792;9.946;2023-07-24T08:47:03;23.30;99.90
13976;DHT22;7062;49.792;9.946;2023-07-24T08:49:30;23.20;99.90
13976;DHT22;7062;49.792;9.946;2023-07-24T08:51:57;22.80;99.90
13976;DHT22;7062;49.792;9.946;2023-07-24T08:54:24;22.50;99.90
13976;DHT22;7062;49.792;9.946;2023-07-24T08:56:52;22.30;99.90
13976;DHT22;7062;49.792;9.946;2023-07-24T08:59:18;22.00;99.90
13976;DHT22;7062;49.792;9.946;2023-07-24T09:01:44;22.00;99.90
13976;DHT22;7062;49.792;9.946;2023-07-24T09:04:09;22.00;99.90
13976;DHT22;7062;49.792;9.946;2023-07-24T09:06:36;22.00;99.90
13976;DHT22;7062;49.792;9.946;2023-07-24T09:09:02;21.50;99.90
13976;DHT22;7062;49.792;9.946;2023-07-24T09:11:49;21.80;99.90
13976;DHT22;7062;49.792;9.946;2023-07-24T09:14:25;21.70;99.90
13976;DHT22;7062;49.792;9.946;2023-07-24T09:17:08;21.50;99.90
13976;DHT22;7062;49.792;9.946;2023-07-24T09:19:34;21.30;99.90
13976;DHT22;7062;49.792;9.946;2023-07-24T09:22:14;21.40;99.90
13976;DHT22;7062;49.792;9.946;2023-07-24T09:24:50;21.40;99.90
13976;DHT22;7062;49.792;9.946;2023-07-24T09:27:16;21.40;99.90
13976;DHT22;7062;49.792;9.946;2023-07-24T09:29:42;21.50;99.90
13976;DHT22;7062;49.792;9.946;2023-07-24T09:32:18;21.60;99.90
13976;DHT22;7062;49.792;9.946;2023-07-24T09:34:44;21.70;99.90
13976;DHT22;7062;49.792;9.946;2023-07-24T09:37:10;21.90;99.90
13976;DHT22;7062;49.792;9.946;2023-07-24T09:39:35;22.10;99.90
13976;DHT22;7062;49.792;9.946;2023-07-24T09:42:05;22.10;99.90
13976;DHT22;7062;49.792;9.946;2023-07-24T09:44:32;22.10;99.90
13976;DHT22;7062;49.792;9.946;2023-07-24T09:46:57;22.30;99.90
13976;DHT22;7062;49.792;9.946;2023-07-24T09:49:23;22.30;99.90
13976;DHT22;7062;49.792;9.946;2023-07-24T09:51:50;22.30;99.90
13976;DHT22;7062;49.792;9.946;2023-07-24T09:54:24;22.30;99.90
13976;DHT22;7062;49.792;9.946;2023-07-24T09:56:51;22.30;99.90
13976;DHT22;7062;49.792;9.946;2023-07-24T09:59:18;22.60;99.90
13976;DHT22;7062;49.792;9.946;2023-07-24T10:01:46;23.30;99.90
13976;DHT22;7062;49.792;9.946;2023-07-24T10:04:12;24.10;99.90
13976;DHT22;7062;49.792;9.946;2023-07-24T10:06:39;24.70;99.90
13976;DHT22;7062;49.792;9.946;2023-07-24T10:09:05;25.00;99.90
13976;DHT22;7062;49.792;9.946;2023-07-24T10:11:32;25.60;99.90
13976;DHT22;7062;49.792;9.946;2023-07-24T10:13:58;26.40;99.90
13976;DHT22;7062;49.792;9.946;2023-07-24T10:16:24;26.60;99.90
13976;DHT22;7062;49.792;9.946;2023-07-24T10:18:50;26.30;99.90
13976;DHT22;7062;49.792;9.946;2023-07-24T10:21:16;26.10;99.90
13976;DHT22;7062;49.792;9.946;2023-07-24T10:23:44;25.50;99.90
13976;DHT22;7062;49.792;9.946;2023-07-24T10:26:12;25.20;99.90
13976;DHT22;7062;49.792;9.946;2023-07-24T10:28:40;24.80;99.90
13976;DHT22;7062;49.792;9.946;2023-07-24T10:31:22;24.40;99.90
13976;DHT22;7062;49.792;9.946;2023-07-24T10:33:48;24.10;99.90
13976;DHT22;7062;49.792;9.946;2023-07-24T10:36:17;24.00;99.90
13976;DHT22;7062;49.792;9.946;2023-07-24T10:38:44;23.80;99.90
13976;DHT22;7062;49.792;9.946;2023-07-24T10:41:11;23.70;99.90
13976;DHT22;7062;49.792;9.946;2023-07-24T10:43:41;23.50;99.90
13976;DHT22;7062;49.792;9.946;2023-07-24T10:46:07;23.40;99.90
13976;DHT22;7062;49.792;9.946;2023-07-24T10:48:33;23.50;99.90
13976;DHT22;7062;49.792;9.946;2023-07-24T10:51:06;23.50;99.90
13976;DHT22;7062;49.792;9.946;2023-07-24T10:53:38;23.30;99.90
13976;DHT22;7062;49.792;9.946;2023-07-24T10:56:04;23.50;99.90
13976;DHT22;7062;49.792;9.946;2023-07-24T10:58:31;23.50;99.90
13976;DHT22;7062;49.792;9.946;2023-07-24T11:00:57;23.60;99.90
13976;DHT22;7062;49.792;9.946;2023-07-24T11:03:24;23.60;99.90
13976;DHT22;7062;49.792;9.946;2023-07-24T11:05:50;23.60;99.90
13976;DHT22;7062;49.792;9.946;2023-07-24T11:08:18;23.70;99.90
13976;DHT22;7062;49.792;9.946;2023-07-24T11:10:48;23.80;99.90
13976;DHT22;7062;49.792;9.946;2023-07-24T11:13:18;23.90;99.90
13976;DHT22;7062;49.792;9.946;2023-07-24T11:15:45;24.10;99.90
13976;DHT22;7062;49.792;9.946;2023-07-24T11:18:10;23.90;99.90
13976;DHT22;7062;49.792;9.946;2023-07-24T11:20:49;23.90;99.90
13976;DHT22;7062;49.792;9.946;2023-07-24T11:23:15;23.90;99.90
13976;DHT22;7062;49.792;9.946;2023-07-24T11:25:41;24.00;99.90
13976;DHT22;7062;49.792;9.946;2023-07-24T11:28:09;24.10;99.90
13976;DHT22;7062;49.792;9.946;2023-07-24T11:30:35;23.90;99.90
13976;DHT22;7062;49.792;9.946;2023-07-24T11:33:03;23.80;99.90
13976;DHT22;7062;49.792;9.946;2023-07-24T11:35:29;23.50;99.90
13976;DHT22;7062;49.792;9.946;2023-07-24T11:37:55;23.60;99.90
13976;DHT22;7062;49.792;9.946;2023-07-24T11:40:20;23.50;99.90
13976;DHT22;7062;49.792;9.946;2023-07-24T11:42:48;23.40;99.90
13976;DHT22;7062;49.792;9.946;2023-07-24T11:45:14;23.30;99.90
13976;DHT22;7062;49.792;9.946;2023-07-24T11:47:47;23.20;99.90
13976;DHT22;7062;49.792;9.946;2023-07-24T11:50:15;23.10;99.90
13976;DHT22;7062;49.792;9.946;2023-07-24T11:52:45;23.10;99.90
13976;DHT22;7062;49.792;9.946;2023-07-24T11:55:18;23.20;99.90
13976;DHT22;7062;49.792;9.946;2023-07-24T11:57:59;23.30;99.90
13976;DHT22;7062;49.792;9.946;2023-07-24T12:00:25;23.10;99.90
13976;DHT22;7062;49.792;9.946;2023-07-24T12:02:52;23.00;99.90
13976;DHT22;7062;49.792;9.946;2023-07-24T12:05:18;23.00;99.90
13976;DHT22;7062;49.792;9.946;2023-07-24T12:07:44;23.20;99.90
13976;DHT22;7062;49.792;9.946;2023-07-24T12:10:13;23.10;99.90
13976;DHT22;7062;49.792;9.946;2023-07-24T12:12:50;23.10;99.90
13976;DHT22;7062;49.792;9.946;2023-07-24T12:15:16;23.30;99.90
13976;DHT22;7062;49.792;9.946;2023-07-24T12:17:42;23.50;99.90
13976;DHT22;7062;49.792;9.946;2023-07-24T12:20:08;23.70;99.90
13976;DHT22;7062;49.792;9.946;2023-07-24T12:22:38;23.60;99.90
13976;DHT22;7062;49.792;9.946;2023-07-24T12:25:05;23.70;99.90
13976;DHT22;7062;49.792;9.946;2023-07-24T12:27:32;23.70;99.90
13976;DHT22;7062;49.792;9.946;2023-07-24T12:29:57;23.80;99.90
13976;DHT22;7062;49.792;9.946;2023-07-24T12:32:23;23.90;99.90
13976;DHT22;7062;49.792;9.946;2023-07-24T12:34:50;23.80;99.90
13976;DHT22;7062;49.792;9.946;2023-07-24T12:37:17;23.90;99.90
13976;DHT22;7062;49.792;9.946;2023-07-24T12:39:44;24.00;99.90
13976;DHT22;7062;49.792;9.946;2023-07-24T12:42:10;24.00;99.90
13976;DHT22;7062;49.792;9.946;2023-07-24T12:44:37;24.20;99.90
13976;DHT22;7062;49.792;9.946;2023-07-24T12:47:04;24.30;99.90
13976;DHT22;7062;49.792;9.946;2023-07-24T12:49:29;24.50;99.90
13976;DHT22;7062;49.792;9.946;2023-07-24T12:51:55;25.10;99.90
13976;DHT22;7062;49.792;9.946;2023-07-24T12:54:21;25.60;99.90
13976;DHT22;7062;49.792;9.946;2023-07-24T12:56:48;25.70;99.90
13976;DHT22;7062;49.792;9.946;2023-07-24T12:59:14;25.80;99.90
13976;DHT22;7062;49.792;9.946;2023-07-24T13:01:39;25.50;99.90
13976;DHT22;7062;49.792;9.946;2023-07-24T13:04:05;26.10;99.90
13976;DHT22;7062;49.792;9.946;2023-07-24T13:06:31;26.10;99.90
13976;DHT22;7062;49.792;9.946;2023-07-24T13:08:56;26.10;99.90
13976;DHT22;7062;49.792;9.946;2023-07-24T13:11:22;25.90;99.90
13976;DHT22;7062;49.792;9.946;2023-07-24T13:13:48;25.70;99.90
13976;DHT22;7062;49.792;9.946;2023-07-24T13:16:16;25.70;99.90
13976;DHT22;7062;49.792;9.946;2023-07-24T13:18:41;25.70;99.90
13976;DHT22;7062;49.792;9.946;2023-07-24T13:21:07;25.40;99.90
13976;DHT22;7062;49.792;9.946;2023-07-24T13:23:33;25.60;99.90
13976;DHT22;7062;49.792;9.946;2023-07-24T13:25:59;25.70;99.90
13976;DHT22;7062;49.792;9.946;2023-07-24T13:28:25;25.70;99.90
13976;DHT22;7062;49.792;9.946;2023-07-24T13:30:50;25.60;99.90
13976;DHT22;7062;49.792;9.946;2023-07-24T13:33:16;25.70;99.90
13976;DHT22;7062;49.792;9.946;2023-07-24T13:35:42;25.70;99.90
13976;DHT22;7062;49.792;9.946;2023-07-24T13:38:07;25.70;99.90
13976;DHT22;7062;49.792;9.946;2023-07-24T13:40:34;25.40;99.90
13976;DHT22;7062;49.792;9.946;2023-07-24T13:43:00;25.30;99.90
13976;DHT22;7062;49.792;9.946;2023-07-24T13:45:26;25.70;99.90
13976;DHT22;7062;49.792;9.946;2023-07-24T13:47:52;26.20;99.90
13976;DHT22;7062;49.792;9.946;2023-07-24T13:50:18;26.40;99.90
13976;DHT22;7062;49.792;9.946;2023-07-24T13:52:43;26.30;99.90
13976;DHT22;7062;49.792;9.946;2023-07-24T13:55:09;25.90;99.90
13976;DHT22;7062;49.792;9.946;2023-07-24T13:57:35;25.60;99.90
13976;DHT22;7062;49.792;9.946;2023-07-24T14:00:00;25.60;99.90
13976;DHT22;7062;49.792;9.946;2023-07-24T14:02:26;25.20;99.90
13976;DHT22;7062;49.792;9.946;2023-07-24T14:04:52;25.00;99.90
13976;DHT22;7062;49.792;9.946;2023-07-24T14:07:18;24.90;99.90
13976;DHT22;7062;49.792;9.946;2023-07-24T14:09:44;25.10;99.90
13976;DHT22;7062;49.792;9.946;2023-07-24T14:12:10;25.30;99.90
13976;DHT22;7062;49.792;9.946;2023-07-24T14:14:35;24.90;99.90
13976;DHT22;7062;49.792;9.946;2023-07-24T14:17:01;24.80;99.90
13976;DHT22;7062;49.792;9.946;2023-07-24T14:19:27;24.70;99.90
13976;DHT22;7062;49.792;9.946;2023-07-24T14:21:52;25.00;99.90
13976;DHT22;7062;49.792;9.946;2023-07-24T14:24:18;25.30;99.90
13976;DHT22;7062;49.792;9.946;2023-07-24T14:26:44;25.30;99.90
13976;DHT22;7062;49.792;9.946;2023-07-24T14:29:10;25.40;99.90
13976;DHT22;7062;49.792;9.946;2023-07-24T14:31:37;25.50;99.90
13976;DHT22;7062;49.792;9.946;2023-07-24T14:34:03;25.80;99.90
13976;DHT22;7062;49.792;9.946;2023-07-24T14:36:29;26.00;99.90
13976;DHT22;7062;49.792;9.946;2023-07-24T14:39:00;26.10;99.90
13976;DHT22;7062;49.792;9.946;2023-07-24T14:41:27;26.30;99.90
13976;DHT22;7062;49.792;9.946;2023-07-24T14:43:52;26.20;99.90
13976;DHT22;7062;49.792;9.946;2023-07-24T14:46:18;26.30;99.90
13976;DHT22;7062;49.792;9.946;2023-07-24T14:48:44;26.20;99.90
13976;DHT22;7062;49.792;9.946;2023-07-24T14:51:09;26.00;99.90
13976;DHT22;7062;49.792;9.946;2023-07-24T14:53:35;26.00;99.90
13976;DHT22;7062;49.792;9.946;2023-07-24T14:56:02;26.10;99.90
13976;DHT22;7062;49.792;9.946;2023-07-24T14:58:28;26.00;99.90
13976;DHT22;7062;49.792;9.946;2023-07-24T15:00:54;26.20;99.90
13976;DHT22;7062;49.792;9.946;2023-07-24T15:03:19;26.30;99.90
13976;DHT22;7062;49.792;9.946;2023-07-24T15:05:45;26.40;99.90
13976;DHT22;7062;49.792;9.946;2023-07-24T15:08:11;26.60;99.90
13976;DHT22;7062;49.792;9.946;2023-07-24T15:10:36;26.30;99.90
13976;DHT22;7062;49.792;9.946;2023-07-24T15:13:02;26.50;99.90
13976;DHT22;7062;49.792;9.946;2023-07-24T15:15:28;26.30;99.90
13976;DHT22;7062;49.792;9.946;2023-07-24T15:17:53;25.90;99.90
13976;DHT22;7062;49.792;9.946;2023-07-24T15:20:19;25.80;99.90
13976;DHT22;7062;49.792;9.946;2023-07-24T15:22:45;25.70;99.90
13976;DHT22;7062;49.792;9.946;2023-07-24T15:25:10;25.50;99.90
13976;DHT22;7062;49.792;9.946;2023-07-24T15:27:36;25.40;99.90
13976;DHT22;7062;49.792;9.946;2023-07-24T15:30:01;25.20;99.90
13976;DHT22;7062;49.792;9.946;2023-07-24T15:32:27;25.10;99.90
13976;DHT22;7062;49.792;9.946;2023-07-24T15:34:53;24.80;99.90
13976;DHT22;7062;49.792;9.946;2023-07-24T15:37:19;24.70;99.90
13976;DHT22;7062;49.792;9.946;2023-07-24T15:39:44;24.50;99.90
13976;DHT22;7062;49.792;9.946;2023-07-24T15:42:10;24.30;99.90